createdAt,value
2022-09-09T00:00:37.932Z,99.90
2022-09-09T00:03:28.420Z,99.90
2022-09-09T00:06:23.204Z,99.90
2022-09-09T00:09:13.349Z,99.90
2022-09-09T00:12:05.885Z,99.90
2022-09-09T00:15:08.580Z,99.90
2022-09-09T00:18:12.700Z,99.90
2022-09-09T00:21:13.933Z,99.90
2022-09-09T00:24:00.549Z,99.90
2022-09-09T00:26:56.013Z,99.90
2022-09-09T00:29:54.840Z,99.90
2022-09-09T00:32:40.529Z,99.90
2022-09-09T00:35:32.207Z,99.90
2022-09-09T00:38:26.196Z,99.90
2022-09-09T00:41:20.725Z,99.90
2022-09-09T00:44:36.300Z,99.90
2022-09-09T00:47:31.200Z,99.90
2022-09-09T00:50:30.776Z,99.90
2022-09-09T00:53:28.847Z,99.90
2022-09-09T00:56:20.226Z,99.90
2022-09-09T00:59:33.343Z,99.90
2022-09-09T01:02:38.749Z,99.90
2022-09-09T01:05:33.604Z,99.90
2022-09-09T01:08:56.009Z,99.90
2022-09-09T01:11:50.729Z,99.90
2022-09-09T01:14:40.896Z,99.90
2022-09-09T01:17:35.597Z,99.90
2022-09-09T01:20:32.636Z,99.90
2022-09-09T01:23:47.366Z,99.90
2022-09-09T01:26:58.172Z,99.90
2022-09-09T01:29:45.964Z,99.90
2022-09-09T01:33:01.253Z,99.90
2022-09-09T01:35:56.524Z,99.90
2022-09-09T01:38:45.937Z,99.90
2022-09-09T01:41:31.491Z,99.90
2022-09-09T01:44:27.544Z,99.90
2022-09-09T01:47:13.445Z,99.90
2022-09-09T01:50:24.695Z,99.90
2022-09-09T01:53:13.280Z,99.90
2022-09-09T01:56:30.323Z,99.90
2022-09-09T01:59:40.047Z,99.90
2022-09-09T02:02:44.789Z,99.90
2022-09-09T02:05:40.639Z,99.90
2022-09-09T02:08:48.655Z,99.90
2022-09-09T02:11:35.660Z,99.90
2022-09-09T02:14:38.971Z,99.90
2022-09-09T02:17:30.586Z,99.90
2022-09-09T02:20:35.188Z,99.90
2022-09-09T02:23:22.240Z,99.90
2022-09-09T02:26:15.893Z,99.90
2022-09-09T02:29:05.520Z,99.90
2022-09-09T02:31:54.477Z,99.90
2022-09-09T02:34:57.935Z,99.90
2022-09-09T02:37:47.278Z,99.90
2022-09-09T02:40:34.026Z,99.90
2022-09-09T02:43:23.171Z,99.90
2022-09-09T02:46:45.919Z,99.90
2022-09-09T02:49:51.047Z,99.90
2022-09-09T02:53:03.387Z,99.90
2022-09-09T02:56:19.490Z,99.90
2022-09-09T02:59:07.572Z,99.90
2022-09-09T03:01:56.457Z,99.90
2022-09-09T03:04:45.584Z,99.90
2022-09-09T03:07:33.235Z,99.90
2022-09-09T03:10:20.283Z,99.90
2022-09-09T03:13:06.959Z,99.90
2022-09-09T03:15:57.259Z,99.90
2022-09-09T03:18:43.664Z,99.90
2022-09-09T03:21:29.827Z,99.90
2022-09-09T03:24:16.181Z,99.90
2022-09-09T03:27:02.463Z,99.90
2022-09-09T03:29:52.053Z,99.90
2022-09-09T03:32:41.250Z,99.90
2022-09-09T03:35:27.364Z,99.90
2022-09-09T03:38:13.086Z,99.90
2022-09-09T03:40:59.752Z,99.90
2022-09-09T03:43:46.645Z,99.90
2022-09-09T03:46:33.056Z,99.90
2022-09-09T03:49:21.219Z,99.90
2022-09-09T03:52:07.699Z,99.90
2022-09-09T03:54:54.635Z,99.90
2022-09-09T03:57:40.289Z,99.90
2022-09-09T04:00:28.461Z,99.90
2022-09-09T04:03:23.644Z,99.90
2022-09-09T04:06:18.897Z,99.90
2022-09-09T04:09:06.036Z,99.90
2022-09-09T04:11:54.191Z,99.90
2022-09-09T04:14:39.746Z,99.90
2022-09-09T04:17:26.544Z,99.90
2022-09-09T04:20:13.265Z,99.90
2022-09-09T04:22:58.724Z,99.90
2022-09-09T04:25:48.933Z,99.90
2022-09-09T04:28:36.863Z,99.90
2022-09-09T04:31:25.520Z,99.90
2022-09-09T04:34:14.899Z,99.90
2022-09-09T04:37:01.408Z,99.90
2022-09-09T04:39:47.842Z,99.90
2022-09-09T04:42:37.432Z,99.90
2022-09-09T04:45:23.190Z,99.90
2022-09-09T04:48:13.544Z,99.90
2022-09-09T04:51:05.850Z,99.90
2022-09-09T04:53:55.003Z,99.90
2022-09-09T04:56:42.307Z,99.90
2022-09-09T04:59:27.871Z,99.90
2022-09-09T05:02:16.449Z,99.90
2022-09-09T05:05:02.243Z,99.90
2022-09-09T05:07:48.900Z,99.90
2022-09-09T05:10:37.436Z,99.90
2022-09-09T05:13:23.851Z,99.90
2022-09-09T05:16:12.201Z,99.90
2022-09-09T05:18:58.328Z,99.90
2022-09-09T05:21:45.001Z,99.90
2022-09-09T05:24:34.136Z,99.90
2022-09-09T05:27:22.873Z,99.90
2022-09-09T05:30:09.875Z,99.90
2022-09-09T05:32:57.641Z,99.90
2022-09-09T05:35:44.149Z,99.90
2022-09-09T05:38:30.157Z,99.90
2022-09-09T05:41:19.447Z,99.90
2022-09-09T05:44:07.168Z,99.90
2022-09-09T05:46:58.365Z,99.90
2022-09-09T05:49:44.141Z,99.90
2022-09-09T05:52:29.837Z,99.90
2022-09-09T05:55:18.574Z,99.90
2022-09-09T05:58:05.260Z,99.90
2022-09-09T06:00:51.421Z,99.90
2022-09-09T06:03:41.200Z,99.90
2022-09-09T06:06:38.069Z,99.90
2022-09-09T06:09:29.032Z,99.90
2022-09-09T06:12:15.161Z,99.90
2022-09-09T06:15:01.013Z,99.90
2022-09-09T06:17:47.102Z,99.90
2022-09-09T06:20:33.308Z,99.90
2022-09-09T06:23:19.272Z,99.90
2022-09-09T06:26:12.467Z,99.90
2022-09-09T06:28:59.557Z,99.90
2022-09-09T06:31:46.873Z,99.90
2022-09-09T06:34:36.565Z,99.90
2022-09-09T06:37:25.099Z,99.90
2022-09-09T06:40:11.122Z,99.90
2022-09-09T06:43:01.735Z,99.90
2022-09-09T06:46:03.671Z,99.90
2022-09-09T06:48:51.510Z,99.90
2022-09-09T06:51:43.469Z,99.90
2022-09-09T06:54:30.645Z,99.90
2022-09-09T06:57:35.945Z,99.90
2022-09-09T07:00:21.894Z,99.90
2022-09-09T07:03:07.428Z,99.90
2022-09-09T07:05:57.614Z,99.90
2022-09-09T07:08:56.290Z,99.90
2022-09-09T07:11:54.239Z,99.90
2022-09-09T07:14:42.123Z,99.90
2022-09-09T07:17:30.135Z,99.90
2022-09-09T07:20:17.760Z,99.90
2022-09-09T07:23:04.059Z,99.90
2022-09-09T07:25:51.408Z,99.90
2022-09-09T07:28:37.364Z,99.90
2022-09-09T07:31:27.161Z,99.90
2022-09-09T07:34:13.300Z,99.90
2022-09-09T07:36:59.682Z,99.90
2022-09-09T07:39:46.036Z,99.90
2022-09-09T07:42:33.219Z,99.90
2022-09-09T07:45:18.619Z,99.90
2022-09-09T07:48:05.015Z,99.90
2022-09-09T07:50:51.157Z,99.90
2022-09-09T07:53:37.439Z,99.90
2022-09-09T07:56:24.244Z,99.90
2022-09-09T07:59:11.722Z,99.90
2022-09-09T08:01:59.494Z,99.90
2022-09-09T08:04:48.436Z,99.90
2022-09-09T08:07:35.863Z,99.90
2022-09-09T08:10:21.792Z,99.90
2022-09-09T08:13:18.074Z,99.90
2022-09-09T08:16:13.825Z,99.90
2022-09-09T08:19:00.748Z,99.90
2022-09-09T08:21:46.862Z,99.90
2022-09-09T08:24:32.395Z,99.90
2022-09-09T08:27:18.519Z,99.90
2022-09-09T08:30:04.177Z,99.90
2022-09-09T08:32:53.865Z,99.90
2022-09-09T08:35:40.848Z,99.90
2022-09-09T08:38:26.397Z,99.90
2022-09-09T08:41:31.703Z,99.90
2022-09-09T08:44:23.183Z,99.90
2022-09-09T08:47:48.155Z,99.90
2022-09-09T08:50:39.486Z,99.90
2022-09-09T08:54:01.159Z,99.90
2022-09-09T08:56:47.248Z,99.90
2022-09-09T08:59:32.553Z,99.90
2022-09-09T09:02:22.961Z,99.90
2022-09-09T09:05:16.325Z,99.90
2022-09-09T09:08:30.220Z,99.90
2022-09-09T09:11:15.963Z,99.90
2022-09-09T09:14:12.093Z,99.90
2022-09-09T09:17:04.404Z,99.90
2022-09-09T09:19:53.699Z,99.90
2022-09-09T09:22:52.949Z,99.90
2022-09-09T09:25:42.067Z,99.90
2022-09-09T09:28:32.398Z,99.90
2022-09-09T09:31:24.297Z,99.90
2022-09-09T09:34:13.046Z,99.90
2022-09-09T09:37:04.049Z,99.90
2022-09-09T09:40:07.534Z,99.90
2022-09-09T09:42:57.577Z,99.90
2022-09-09T09:45:55.337Z,99.90
2022-09-09T09:49:06.724Z,99.90
2022-09-09T09:51:53.619Z,99.90
2022-09-09T09:54:42.522Z,99.90
2022-09-09T09:57:31.040Z,99.90
2022-09-09T10:00:21.817Z,99.90
2022-09-09T10:03:30.156Z,99.90
2022-09-09T10:06:17.803Z,99.90
2022-09-09T10:09:19.705Z,99.90
2022-09-09T10:12:47.830Z,99.90
2022-09-09T10:16:08.459Z,99.90
2022-09-09T10:19:28.195Z,99.90
2022-09-09T10:22:22.820Z,99.90
2022-09-09T10:25:28.845Z,99.80
2022-09-09T10:28:29.667Z,99.30
2022-09-09T10:31:31.694Z,98.30
2022-09-09T10:34:51.070Z,97.90
2022-09-09T10:38:02.700Z,99.60
2022-09-09T10:40:54.385Z,97.60
2022-09-09T10:44:06.152Z,97.80
2022-09-09T10:47:27.839Z,98.30
2022-09-09T10:53:54.422Z,97.10
2022-09-09T10:56:43.111Z,96.30
2022-09-09T10:59:39.649Z,95.40
2022-09-09T11:02:30.352Z,95.60
2022-09-09T11:05:34.881Z,95.90
2022-09-09T11:11:35.685Z,94.60
2022-09-09T11:14:39.213Z,95.00
2022-09-09T11:17:34.763Z,92.00
2022-09-09T11:20:20.548Z,92.80
2022-09-09T11:23:18.238Z,92.10
2022-09-09T11:26:05.926Z,93.10
2022-09-09T11:29:10.209Z,92.40
2022-09-09T11:32:35.255Z,90.60
2022-09-09T11:35:21.884Z,92.80
2022-09-09T11:38:22.430Z,91.00
2022-09-09T11:41:11.090Z,91.00
2022-09-09T11:43:57.223Z,91.10
2022-09-09T11:46:42.881Z,90.10
2022-09-09T11:49:44.219Z,90.40
2022-09-09T11:52:50.420Z,89.40
2022-09-09T11:55:37.840Z,90.60
2022-09-09T11:58:23.797Z,90.80
2022-09-09T12:01:26.762Z,90.30
2022-09-09T12:04:27.380Z,90.00
2022-09-09T12:07:35.937Z,91.50
2022-09-09T12:10:40.333Z,90.80
2022-09-09T12:13:27.724Z,88.60
2022-09-09T12:16:34.342Z,89.50
2022-09-09T12:19:26.935Z,81.80
2022-09-09T12:22:36.279Z,81.30
2022-09-09T12:25:54.075Z,80.50
2022-09-09T12:28:48.821Z,81.10
2022-09-09T12:32:17.601Z,78.40
2022-09-09T12:35:21.320Z,80.80
2022-09-09T12:38:12.545Z,78.70
2022-09-09T12:40:59.415Z,80.50
2022-09-09T12:43:45.581Z,79.30
2022-09-09T12:46:41.398Z,76.00
2022-09-09T12:49:37.575Z,75.50
2022-09-09T12:52:37.707Z,76.50
2022-09-09T12:55:28.868Z,77.30
2022-09-09T12:58:17.591Z,77.70
2022-09-09T13:01:06.236Z,77.60
2022-09-09T13:03:51.837Z,76.20
2022-09-09T13:06:37.499Z,77.50
2022-09-09T13:09:23.133Z,77.50
2022-09-09T13:12:16.212Z,79.50
2022-09-09T13:15:03.406Z,78.60
2022-09-09T13:18:02.758Z,79.80
2022-09-09T13:20:49.599Z,81.00
2022-09-09T13:23:37.332Z,76.00
2022-09-09T13:26:26.886Z,78.50
2022-09-09T13:29:21.479Z,79.70
2022-09-09T13:32:17.361Z,74.90
2022-09-09T13:35:03.736Z,76.30
2022-09-09T13:37:49.220Z,78.60
2022-09-09T13:40:35.535Z,78.30
2022-09-09T13:43:24.130Z,76.50
2022-09-09T13:46:44.141Z,73.00
2022-09-09T13:49:31.529Z,76.30
2022-09-09T13:52:19.824Z,77.30
2022-09-09T13:55:05.743Z,70.80
2022-09-09T13:58:02.780Z,71.30
2022-09-09T14:00:48.457Z,72.10
2022-09-09T14:03:34.881Z,68.70
2022-09-09T14:06:22.852Z,68.70
2022-09-09T14:09:12.012Z,68.00
2022-09-09T14:11:57.588Z,68.10
2022-09-09T14:14:43.473Z,65.40
2022-09-09T14:17:32.165Z,65.70
2022-09-09T14:20:18.693Z,65.40
2022-09-09T14:23:04.193Z,63.60
2022-09-09T14:25:50.131Z,63.90
2022-09-09T14:28:54.273Z,64.10
2022-09-09T14:31:40.584Z,61.90
2022-09-09T14:34:26.129Z,64.50
2022-09-09T14:37:12.349Z,63.80
2022-09-09T14:39:58.774Z,61.90
2022-09-09T14:42:44.164Z,64.80
2022-09-09T14:45:29.796Z,66.30
2022-09-09T14:48:16.317Z,66.80
2022-09-09T14:51:25.717Z,67.40
2022-09-09T14:54:11.881Z,64.90
2022-09-09T14:56:57.732Z,62.90
2022-09-09T14:59:43.713Z,63.70
2022-09-09T15:02:30.993Z,63.70
2022-09-09T15:05:18.100Z,67.70
2022-09-09T15:08:03.781Z,68.00
2022-09-09T15:10:49.332Z,67.00
2022-09-09T15:13:38.297Z,70.50
2022-09-09T15:16:27.052Z,71.40
2022-09-09T15:19:12.728Z,70.60
2022-09-09T15:21:58.229Z,68.10
2022-09-09T15:24:43.917Z,70.30
2022-09-09T15:27:30.017Z,69.10
2022-09-09T15:30:15.821Z,69.30
2022-09-09T15:33:01.596Z,70.90
2022-09-09T15:35:47.099Z,69.50
2022-09-09T15:38:32.842Z,69.10
2022-09-09T15:41:20.841Z,70.70
2022-09-09T15:44:06.688Z,72.90
2022-09-09T15:46:57.160Z,70.90
2022-09-09T15:49:42.746Z,73.80
2022-09-09T15:52:28.321Z,74.60
2022-09-09T15:55:14.340Z,75.30
2022-09-09T15:58:00.076Z,74.30
2022-09-09T16:00:46.665Z,74.90
2022-09-09T16:03:40.689Z,72.60
2022-09-09T16:06:29.822Z,73.70
2022-09-09T16:09:15.700Z,74.50
2022-09-09T16:12:03.370Z,74.20
2022-09-09T16:14:49.131Z,74.70
2022-09-09T16:17:38.649Z,74.00
2022-09-09T16:20:24.384Z,74.50
2022-09-09T16:23:10.505Z,75.40
2022-09-09T16:25:56.895Z,75.30
2022-09-09T16:28:42.848Z,72.80
2022-09-09T16:31:29.705Z,72.80
2022-09-09T16:34:17.036Z,74.60
2022-09-09T16:37:03.137Z,75.10
2022-09-09T16:39:48.702Z,75.20
2022-09-09T16:42:38.841Z,75.60
2022-09-09T16:45:25.123Z,74.60
2022-09-09T16:48:10.852Z,73.90
2022-09-09T16:51:22.603Z,73.90
2022-09-09T16:54:09.854Z,74.50
2022-09-09T16:56:55.866Z,74.10
2022-09-09T16:59:42.448Z,73.70
2022-09-09T17:02:28.089Z,74.90
2022-09-09T17:05:13.541Z,75.00
2022-09-09T17:07:59.132Z,75.80
2022-09-09T17:10:44.915Z,76.00
2022-09-09T17:13:31.223Z,76.00
2022-09-09T17:16:21.238Z,75.40
2022-09-09T17:19:09.285Z,77.70
2022-09-09T17:22:16.337Z,76.80
2022-09-09T17:25:02.807Z,78.30
2022-09-09T17:27:48.441Z,79.70
2022-09-09T17:30:38.029Z,82.40
2022-09-09T17:33:24.154Z,82.80
2022-09-09T17:36:28.318Z,83.00
2022-09-09T17:39:14.020Z,84.30
2022-09-09T17:41:59.784Z,84.20
2022-09-09T17:44:45.282Z,85.30
2022-09-09T17:47:31.833Z,86.30
2022-09-09T17:50:17.503Z,85.80
2022-09-09T17:53:03.409Z,83.40
2022-09-09T17:55:52.596Z,84.80
2022-09-09T17:58:39.824Z,85.90
2022-09-09T18:01:31.335Z,85.40
2022-09-09T18:04:17.843Z,86.00
2022-09-09T18:07:05.693Z,87.80
2022-09-09T18:09:51.248Z,88.70
2022-09-09T18:12:36.641Z,89.40
2022-09-09T18:15:39.120Z,90.10
2022-09-09T18:18:29.750Z,90.50
2022-09-09T18:21:15.529Z,90.30
2022-09-09T18:24:03.581Z,90.90
2022-09-09T18:26:51.024Z,91.20
2022-09-09T18:29:36.816Z,91.10
2022-09-09T18:32:22.232Z,92.00
2022-09-09T18:35:08.058Z,92.10
2022-09-09T18:37:55.157Z,92.50
2022-09-09T18:40:40.703Z,93.30
2022-09-09T18:43:26.259Z,93.80
2022-09-09T18:46:12.869Z,94.10
2022-09-09T18:48:58.693Z,94.10
2022-09-09T18:51:46.400Z,94.60
2022-09-09T18:54:34.322Z,95.10
2022-09-09T18:57:20.380Z,95.80
2022-09-09T19:00:08.394Z,96.30
2022-09-09T19:02:54.114Z,96.90
2022-09-09T19:05:39.753Z,98.50
2022-09-09T19:08:25.479Z,98.60
2022-09-09T19:11:16.248Z,98.30
2022-09-09T19:14:04.678Z,98.50
2022-09-09T19:16:51.745Z,98.80
2022-09-09T19:19:37.313Z,98.60
2022-09-09T19:22:23.219Z,97.60
2022-09-09T19:25:09.189Z,98.10
2022-09-09T19:27:54.956Z,99.30
2022-09-09T19:30:40.392Z,98.80
2022-09-09T19:33:27.793Z,98.50
2022-09-09T19:36:15.466Z,99.60
2022-09-09T19:39:03.812Z,99.90
2022-09-09T19:41:49.940Z,99.90
2022-09-09T19:44:35.570Z,99.90
2022-09-09T19:47:21.235Z,99.90
2022-09-09T19:50:07.575Z,99.90
2022-09-09T19:52:54.817Z,99.90
2022-09-09T19:55:40.350Z,99.90
2022-09-09T19:58:25.929Z,99.90
2022-09-09T20:01:13.612Z,99.90
2022-09-09T20:04:01.353Z,99.90
2022-09-09T20:06:47.429Z,99.90
2022-09-09T20:09:33.249Z,99.90
2022-09-09T20:12:18.718Z,99.90
2022-09-09T20:15:04.482Z,99.90
2022-09-09T20:17:49.905Z,99.90
2022-09-09T20:20:40.862Z,99.90
2022-09-09T20:23:28.092Z,99.90
2022-09-09T20:26:17.539Z,99.90
2022-09-09T20:29:15.246Z,99.90
2022-09-09T20:32:01.848Z,99.90
2022-09-09T20:34:48.557Z,99.90
2022-09-09T20:37:33.961Z,99.90
2022-09-09T20:40:20.322Z,99.90
2022-09-09T20:43:06.574Z,99.90
2022-09-09T20:45:53.868Z,99.90
2022-09-09T20:48:39.629Z,99.90
2022-09-09T20:51:26.270Z,99.90
2022-09-09T20:54:14.301Z,99.90
2022-09-09T20:57:00.429Z,99.90
2022-09-09T20:59:48.352Z,99.90
2022-09-09T21:02:34.274Z,99.90
2022-09-09T21:05:23.914Z,99.90
2022-09-09T21:08:10.129Z,99.90
2022-09-09T21:10:56.645Z,99.90
2022-09-09T21:13:42.173Z,99.90
2022-09-09T21:16:28.001Z,99.90
2022-09-09T21:19:13.671Z,99.90
2022-09-09T21:21:59.209Z,99.90
2022-09-09T21:24:44.582Z,99.90
2022-09-09T21:27:30.180Z,99.90
2022-09-09T21:30:16.455Z,99.90
2022-09-09T21:33:02.769Z,99.90
2022-09-09T21:35:49.256Z,99.90
2022-09-09T21:38:35.399Z,99.90
2022-09-09T21:41:20.658Z,99.90
2022-09-09T21:44:06.345Z,99.90
2022-09-09T21:46:52.076Z,99.90
2022-09-09T21:49:37.657Z,99.90
2022-09-09T21:52:23.086Z,99.90
2022-09-09T21:55:09.956Z,99.90
2022-09-09T21:57:55.601Z,99.90
2022-09-09T22:00:45.501Z,99.90
2022-09-09T22:03:31.268Z,99.90
2022-09-09T22:06:18.608Z,99.90
2022-09-09T22:09:04.520Z,99.90
2022-09-09T22:11:52.679Z,99.90
2022-09-09T22:14:38.172Z,99.90
2022-09-09T22:17:24.540Z,99.90
2022-09-09T22:20:12.235Z,99.90
2022-09-09T22:22:57.985Z,99.90
2022-09-09T22:25:44.179Z,99.90
2022-09-09T22:28:30.025Z,99.90
2022-09-09T22:31:15.947Z,99.90
2022-09-09T22:34:01.771Z,99.90
2022-09-09T22:36:47.689Z,99.90
2022-09-09T22:39:33.679Z,99.90
2022-09-09T22:42:19.324Z,99.90
2022-09-09T22:45:05.533Z,99.90
2022-09-09T22:47:51.360Z,99.90
2022-09-09T22:50:42.077Z,99.90
2022-09-09T22:53:28.152Z,99.90
2022-09-09T22:56:19.360Z,99.90
2022-09-09T22:59:05.020Z,99.90
2022-09-09T23:01:51.405Z,99.90
2022-09-09T23:04:39.233Z,99.90
2022-09-09T23:07:24.576Z,99.90
2022-09-09T23:10:11.131Z,99.90
2022-09-09T23:12:58.743Z,99.90
2022-09-09T23:15:46.321Z,99.90
2022-09-09T23:18:33.549Z,99.90
2022-09-09T23:21:19.488Z,99.90
2022-09-09T23:24:06.540Z,99.90
2022-09-09T23:26:52.976Z,99.90
2022-09-09T23:29:39.057Z,99.90
2022-09-09T23:32:24.910Z,99.90
2022-09-09T23:35:10.345Z,99.90
2022-09-09T23:37:55.829Z,99.90
2022-09-09T23:40:41.224Z,99.90
2022-09-09T23:43:26.710Z,99.90
2022-09-09T23:46:15.142Z,99.90
2022-09-09T23:49:02.575Z,99.90
2022-09-09T23:51:49.606Z,99.90
2022-09-09T23:54:35.682Z,99.90
2022-09-09T23:57:21.856Z,99.90
